Tijuana, BCN, Mexico
Current Conditions -  °F | °C
As of 3:43 PM on Wednesday 28 Jan 2015 (Local Time) from MMTJ Reporting Station
Overcast Overcast  
Wind Chill: 68°   Ceiling: 20000
Heat Index: 68°   Visibility: 9mi
Dew Point: 45°   Wind: 6mph
Humidity: 43%   Direction: 280°W
Pressure: 30.08"   Gusts: NA
Location:  32.53°N, 117.02°W
Report Text: MMTJ 282343Z 28005KT 9SM OVC200 20/07 A3008 RMK SLP191 52010 984 8/008 HZY
Loading
Personal Weather Stations






























Interactive Weather Map New forecast layout! Learn more

10-Day Weather Forecast

Advertisements
Track Severe Weather on mobile